2026/07/27

Sensor Date Temp./Hum.
h4-hermonville 27-07-2026 - 23:58 21.1°C / 51.5%
h2-hermonville 27-07-2026 - 23:54 21.4°C / 51.5%
h1-hermonville 27-07-2026 - 23:54 19.8°C / 55.5%
h3-hermonville 27-07-2026 - 23:50 20.9°C / 52%
h4-hermonville 27-07-2026 - 23:48 21.2°C / 51.5%
h2-hermonville 27-07-2026 - 23:44 21.8°C / 50.5%
h1-hermonville 27-07-2026 - 23:44 20°C / 55%
h3-hermonville 27-07-2026 - 23:40 21°C / 51.5%
h4-hermonville 27-07-2026 - 23:38 21.4°C / 51.5%
h2-hermonville 27-07-2026 - 23:34 22.3°C / 48.5%
h1-hermonville 27-07-2026 - 23:34 20.1°C / 54.5%
h3-hermonville 27-07-2026 - 23:30 21.2°C / 51.5%
h4-hermonville 27-07-2026 - 23:28 21.6°C / 51%
h2-hermonville 27-07-2026 - 23:24 22.6°C / 49%
h1-hermonville 27-07-2026 - 23:24 20.4°C / 54%
h3-hermonville 27-07-2026 - 23:20 21.4°C / 51.5%
h4-hermonville 27-07-2026 - 23:18 21.7°C / 50.5%
h2-hermonville 27-07-2026 - 23:14 22.9°C / 49%
h1-hermonville 27-07-2026 - 23:14 20.5°C / 53.5%
h3-hermonville 27-07-2026 - 23:10 21.5°C / 51%
h4-hermonville 27-07-2026 - 23:08 21.7°C / 50.5%
h2-hermonville 27-07-2026 - 23:04 23.1°C / 49%
h1-hermonville 27-07-2026 - 23:04 20.6°C / 53.5%
h3-hermonville 27-07-2026 - 23:00 21.6°C / 51%
h4-hermonville 27-07-2026 - 22:58 21.8°C / 51%
h2-hermonville 27-07-2026 - 22:54 23.2°C / 49.5%
h1-hermonville 27-07-2026 - 22:54 20.8°C / 53.5%
h3-hermonville 27-07-2026 - 22:50 21.8°C / 51%
h4-hermonville 27-07-2026 - 22:48 21.9°C / 51%
h1-hermonville 27-07-2026 - 22:44 21.1°C / 53.5%
h4-hermonville 27-07-2026 - 22:38 21.9°C / 50.5%
h1-hermonville 27-07-2026 - 22:34 21.2°C / 53%
h3-hermonville 27-07-2026 - 22:30 21.9°C / 50.5%
h4-hermonville 27-07-2026 - 22:28 22.1°C / 50%
h2-hermonville 27-07-2026 - 22:24 23.6°C / 49%
h1-hermonville 27-07-2026 - 22:24 21.3°C / 52.5%
h3-hermonville 27-07-2026 - 22:20 22.2°C / 50.5%
h4-hermonville 27-07-2026 - 22:18 22.2°C / 50%
h2-hermonville 27-07-2026 - 22:14 23.6°C / 48.5%
h1-hermonville 27-07-2026 - 22:14 21.4°C / 52.5%
h3-hermonville 27-07-2026 - 22:10 22.3°C / 50%
h4-hermonville 27-07-2026 - 22:08 22.3°C / 49.5%
h2-hermonville 27-07-2026 - 22:04 23.7°C / 48.5%
h1-hermonville 27-07-2026 - 22:04 21.7°C / 51.5%
h3-hermonville 27-07-2026 - 22:00 22.5°C / 49%
h4-hermonville 27-07-2026 - 21:58 22.4°C / 49.5%
h2-hermonville 27-07-2026 - 21:54 23.8°C / 48%
h1-hermonville 27-07-2026 - 21:54 22°C / 51.5%
h3-hermonville 27-07-2026 - 21:50 22.7°C / 49%
h4-hermonville 27-07-2026 - 21:48 22.6°C / 49%
h2-hermonville 27-07-2026 - 21:44 23.9°C / 47.5%
h1-hermonville 27-07-2026 - 21:44 22°C / 51%
h3-hermonville 27-07-2026 - 21:40 22.8°C / 48.5%
h4-hermonville 27-07-2026 - 21:38 22.6°C / 48.5%
h2-hermonville 27-07-2026 - 21:34 24°C / 47.5%
h1-hermonville 27-07-2026 - 21:34 22.4°C / 50%
h3-hermonville 27-07-2026 - 21:30 23.2°C / 47.5%
h4-hermonville 27-07-2026 - 21:28 23°C / 48.5%
h2-hermonville 27-07-2026 - 21:24 24°C / 48.5%
h1-hermonville 27-07-2026 - 21:24 22.7°C / 49.5%
h3-hermonville 27-07-2026 - 21:20 23.6°C / 47%
h4-hermonville 27-07-2026 - 21:18 23.1°C / 47.5%
h2-hermonville 27-07-2026 - 21:14 24.2°C / 47.5%
h1-hermonville 27-07-2026 - 21:14 23.1°C / 48.5%
h3-hermonville 27-07-2026 - 21:10 23.8°C / 46.5%
h4-hermonville 27-07-2026 - 21:08 23.3°C / 47%
h2-hermonville 27-07-2026 - 21:04 24.3°C / 47%
h1-hermonville 27-07-2026 - 21:04 23.4°C / 47.5%
h3-hermonville 27-07-2026 - 21:00 24°C / 45.5%
h4-hermonville 27-07-2026 - 20:58 23.6°C / 46.5%
h2-hermonville 27-07-2026 - 20:54 24.6°C / 46.5%
h1-hermonville 27-07-2026 - 20:54 23.8°C / 46.5%
h3-hermonville 27-07-2026 - 20:50 24.3°C / 44.5%
h4-hermonville 27-07-2026 - 20:48 23.6°C / 45.5%
h2-hermonville 27-07-2026 - 20:44 24.9°C / 45%
h1-hermonville 27-07-2026 - 20:44 24°C / 45.5%
h3-hermonville 27-07-2026 - 20:40 24.4°C / 44.5%
h4-hermonville 27-07-2026 - 20:38 23.8°C / 45.5%
h2-hermonville 27-07-2026 - 20:34 25°C / 45%
h1-hermonville 27-07-2026 - 20:34 24.3°C / 45%
h3-hermonville 27-07-2026 - 20:30 24.5°C / 44%
h4-hermonville 27-07-2026 - 20:28 23.9°C / 45%
h2-hermonville 27-07-2026 - 20:24 25.8°C / 42.5%
h1-hermonville 27-07-2026 - 20:24 24.4°C / 44.5%
h3-hermonville 27-07-2026 - 20:20 24.6°C / 43.5%
h4-hermonville 27-07-2026 - 20:18 24°C / 44.5%
h1-hermonville 27-07-2026 - 20:14 24.5°C / 44%
h3-hermonville 27-07-2026 - 20:10 24.7°C / 43.5%
h4-hermonville 27-07-2026 - 20:08 24°C / 44.5%
h2-hermonville 27-07-2026 - 20:04 27.4°C / 38%
h1-hermonville 27-07-2026 - 20:04 24.5°C / 44%
h3-hermonville 27-07-2026 - 20:00 24.7°C / 43%
h4-hermonville 27-07-2026 - 19:58 24°C / 44%
h2-hermonville 27-07-2026 - 19:54 29.9°C / 35%
h1-hermonville 27-07-2026 - 19:54 24.5°C / 43%
h3-hermonville 27-07-2026 - 19:50 24.8°C / 43%
h4-hermonville 27-07-2026 - 19:48 24.1°C / 44.5%
h2-hermonville 27-07-2026 - 19:44 30.3°C / 34.5%
h1-hermonville 27-07-2026 - 19:44 24.5°C / 43.5%
h3-hermonville 27-07-2026 - 19:40 24.8°C / 43%
h4-hermonville 27-07-2026 - 19:38 24.1°C / 44%
h2-hermonville 27-07-2026 - 19:34 31.2°C / 33.5%
h1-hermonville 27-07-2026 - 19:34 24.5°C / 43.5%
h3-hermonville 27-07-2026 - 19:30 24.7°C / 43%
h4-hermonville 27-07-2026 - 19:28 24.2°C / 44%
h2-hermonville 27-07-2026 - 19:24 31°C / 33%
h1-hermonville 27-07-2026 - 19:24 24.6°C / 43%
h3-hermonville 27-07-2026 - 19:20 24.7°C / 42.5%
h4-hermonville 27-07-2026 - 19:18 24.3°C / 44%
h2-hermonville 27-07-2026 - 19:14 31.6°C / 32%
h1-hermonville 27-07-2026 - 19:14 24.5°C / 43.5%
h3-hermonville 27-07-2026 - 19:10 24.7°C / 43%
h4-hermonville 27-07-2026 - 19:08 24.2°C / 43.5%
h1-hermonville 27-07-2026 - 19:04 24.6°C / 43.5%
h3-hermonville 27-07-2026 - 19:00 24.7°C / 43%
h4-hermonville 27-07-2026 - 18:58 24.3°C / 43.5%
h2-hermonville 27-07-2026 - 18:54 30.6°C / 34.5%
h1-hermonville 27-07-2026 - 18:54 24.6°C / 43.5%
h3-hermonville 27-07-2026 - 18:50 24.6°C / 43%
h4-hermonville 27-07-2026 - 18:48 24.3°C / 43%
h2-hermonville 27-07-2026 - 18:44 29.3°C / 35%
h1-hermonville 27-07-2026 - 18:44 24.6°C / 43%
h3-hermonville 27-07-2026 - 18:40 24.7°C / 43%
h4-hermonville 27-07-2026 - 18:38 24.4°C / 44%
h2-hermonville 27-07-2026 - 18:34 31.1°C / 33%
h1-hermonville 27-07-2026 - 18:34 24.8°C / 43%
h3-hermonville 27-07-2026 - 18:30 24.7°C / 43%
h4-hermonville 27-07-2026 - 18:28 24.4°C / 43.5%
h2-hermonville 27-07-2026 - 18:24 31.4°C / 33.5%
h1-hermonville 27-07-2026 - 18:24 24.7°C / 43%
h3-hermonville 27-07-2026 - 18:20 24.6°C / 43%
h4-hermonville 27-07-2026 - 18:18 24.1°C / 44%
h2-hermonville 27-07-2026 - 18:14 30.5°C / 33.5%
h1-hermonville 27-07-2026 - 18:14 24.5°C / 43%
h3-hermonville 27-07-2026 - 18:10 24.8°C / 43%
h4-hermonville 27-07-2026 - 18:08 24.2°C / 43.5%
h2-hermonville 27-07-2026 - 18:04 30.8°C / 34%
h1-hermonville 27-07-2026 - 18:04 24.4°C / 43.5%
h3-hermonville 27-07-2026 - 18:00 24.7°C / 43%
h4-hermonville 27-07-2026 - 17:58 24.3°C / 43.5%
h2-hermonville 27-07-2026 - 17:54 31.2°C / 32%
h1-hermonville 27-07-2026 - 17:54 24.5°C / 43%
h3-hermonville 27-07-2026 - 17:50 24.8°C / 42.5%
h4-hermonville 27-07-2026 - 17:48 24.3°C / 43.5%
h1-hermonville 27-07-2026 - 17:44 24.9°C / 42.5%
h3-hermonville 27-07-2026 - 17:40 24.7°C / 43%
h4-hermonville 27-07-2026 - 17:38 24.2°C / 43.5%
h2-hermonville 27-07-2026 - 17:34 27.2°C / 38.5%
h1-hermonville 27-07-2026 - 17:34 24.6°C / 43%
h3-hermonville 27-07-2026 - 17:30 24.8°C / 43%
h4-hermonville 27-07-2026 - 17:28 24.3°C / 44%
h2-hermonville 27-07-2026 - 17:24 26.5°C / 41.5%
h1-hermonville 27-07-2026 - 17:24 24.4°C / 44%
h3-hermonville 27-07-2026 - 17:20 24.6°C / 43.5%
h4-hermonville 27-07-2026 - 17:18 24.2°C / 43.5%
h1-hermonville 27-07-2026 - 17:14 24.4°C / 44%
h3-hermonville 27-07-2026 - 17:10 24.2°C / 43%
h4-hermonville 27-07-2026 - 17:08 24°C / 43.5%
h2-hermonville 27-07-2026 - 17:04 27.5°C / 39%
h1-hermonville 27-07-2026 - 17:04 24.2°C / 43.5%
h4-hermonville 27-07-2026 - 16:58 23.7°C / 44%
h2-hermonville 27-07-2026 - 16:54 25.8°C / 42.5%
h1-hermonville 27-07-2026 - 16:54 23.8°C / 44.5%
h3-hermonville 27-07-2026 - 16:50 23.8°C / 44.5%
h4-hermonville 27-07-2026 - 16:48 23.8°C / 44.5%
h1-hermonville 27-07-2026 - 16:44 23.9°C / 45%
h3-hermonville 27-07-2026 - 16:40 23.9°C / 45%
h4-hermonville 27-07-2026 - 16:38 23.8°C / 45%
h2-hermonville 27-07-2026 - 16:34 25.3°C / 44%
h1-hermonville 27-07-2026 - 16:34 23.6°C / 45.5%
h4-hermonville 27-07-2026 - 16:28 24.1°C / 44%
h2-hermonville 27-07-2026 - 16:24 26°C / 43.5%
h1-hermonville 27-07-2026 - 16:24 24.2°C / 45%
h3-hermonville 27-07-2026 - 16:20 24.1°C / 45%
h4-hermonville 27-07-2026 - 16:18 24.1°C / 44.5%
h2-hermonville 27-07-2026 - 16:14 25.2°C / 44%
h1-hermonville 27-07-2026 - 16:14 23.8°C / 45%
h3-hermonville 27-07-2026 - 16:10 24°C / 44%
h4-hermonville 27-07-2026 - 16:08 24°C / 44%
h2-hermonville 27-07-2026 - 16:04 24.9°C / 44%
h1-hermonville 27-07-2026 - 16:04 23.7°C / 43.5%
h3-hermonville 27-07-2026 - 16:00 23.7°C / 44.5%
h4-hermonville 27-07-2026 - 15:58 24.1°C / 44%
h2-hermonville 27-07-2026 - 15:54 24.4°C / 46%
h1-hermonville 27-07-2026 - 15:54 23.7°C / 45.5%
h3-hermonville 27-07-2026 - 15:50 23.6°C / 45%
h4-hermonville 27-07-2026 - 15:48 24°C / 43%
h2-hermonville 27-07-2026 - 15:44 24.1°C / 45.5%
h1-hermonville 27-07-2026 - 15:44 23.6°C / 44.5%
h3-hermonville 27-07-2026 - 15:40 23.6°C / 45%
h4-hermonville 27-07-2026 - 15:38 24.2°C / 43%
h2-hermonville 27-07-2026 - 15:34 24.7°C / 45%
h1-hermonville 27-07-2026 - 15:34 23.8°C / 45.5%
h3-hermonville 27-07-2026 - 15:30 23.8°C / 44.5%
h4-hermonville 27-07-2026 - 15:28 24.4°C / 43%
h2-hermonville 27-07-2026 - 15:24 24.9°C / 43.5%
h1-hermonville 27-07-2026 - 15:24 23.9°C / 45.5%
h3-hermonville 27-07-2026 - 15:20 23.8°C / 45%
h4-hermonville 27-07-2026 - 15:18 24.3°C / 43.5%
h2-hermonville 27-07-2026 - 15:14 24.3°C / 44.5%
h3-hermonville 27-07-2026 - 15:10 23.4°C / 45.5%
h4-hermonville 27-07-2026 - 15:08 23.8°C / 44%
h2-hermonville 27-07-2026 - 15:04 23.8°C / 47.5%
h1-hermonville 27-07-2026 - 15:04 23.5°C / 44.5%
h3-hermonville 27-07-2026 - 15:00 23.4°C / 45.5%
h4-hermonville 27-07-2026 - 14:58 23.9°C / 44.5%
h2-hermonville 27-07-2026 - 14:54 23.6°C / 48.5%
h1-hermonville 27-07-2026 - 14:54 23.4°C / 45.5%
h3-hermonville 27-07-2026 - 14:50 23.2°C / 46.5%
h4-hermonville 27-07-2026 - 14:48 23.6°C / 45%
h2-hermonville 27-07-2026 - 14:44 23.6°C / 47.5%
h1-hermonville 27-07-2026 - 14:44 23.3°C / 46.5%
h3-hermonville 27-07-2026 - 14:40 23.1°C / 46.5%
h4-hermonville 27-07-2026 - 14:38 23.7°C / 43.5%
h2-hermonville 27-07-2026 - 14:34 23.6°C / 47.5%
h1-hermonville 27-07-2026 - 14:34 23.4°C / 45%
h3-hermonville 27-07-2026 - 14:30 23.2°C / 46.5%
h4-hermonville 27-07-2026 - 14:28 23.8°C / 44.5%
h2-hermonville 27-07-2026 - 14:24 23.8°C / 47.5%
h1-hermonville 27-07-2026 - 14:24 23.3°C / 46%
h3-hermonville 27-07-2026 - 14:20 23.4°C / 46.5%
h4-hermonville 27-07-2026 - 14:18 24.1°C / 44%
h2-hermonville 27-07-2026 - 14:14 23.9°C / 46%
h1-hermonville 27-07-2026 - 14:14 23.4°C / 47%
h3-hermonville 27-07-2026 - 14:10 23.2°C / 46%
h4-hermonville 27-07-2026 - 14:08 23.9°C / 44.5%
h2-hermonville 27-07-2026 - 14:04 23.4°C / 49%
h1-hermonville 27-07-2026 - 14:04 23°C / 47.5%
h4-hermonville 27-07-2026 - 13:58 23.6°C / 46%
h2-hermonville 27-07-2026 - 13:54 23.2°C / 50%
h1-hermonville 27-07-2026 - 13:54 22.8°C / 48%
h3-hermonville 27-07-2026 - 13:50 22.8°C / 48%
h4-hermonville 27-07-2026 - 13:48 23.6°C / 45%
h1-hermonville 27-07-2026 - 13:44 22.8°C / 46.5%
h3-hermonville 27-07-2026 - 13:40 22.8°C / 46%
h4-hermonville 27-07-2026 - 13:38 23.8°C / 44.5%
h2-hermonville 27-07-2026 - 13:34 23.3°C / 50%
h1-hermonville 27-07-2026 - 13:34 22.8°C / 48%
h3-hermonville 27-07-2026 - 13:30 23°C / 48%
h4-hermonville 27-07-2026 - 13:28 23.9°C / 45.5%
h2-hermonville 27-07-2026 - 13:24 23.1°C / 50%
h1-hermonville 27-07-2026 - 13:24 22.8°C / 48%
h3-hermonville 27-07-2026 - 13:20 22.8°C / 48%
h1-hermonville 27-07-2026 - 13:14 22.5°C / 48%
h3-hermonville 27-07-2026 - 13:10 22.5°C / 47.5%
h2-hermonville 27-07-2026 - 13:04 22.6°C / 49.5%
h1-hermonville 27-07-2026 - 13:04 22.2°C / 47%
h3-hermonville 27-07-2026 - 13:00 22.2°C / 49%
h2-hermonville 27-07-2026 - 12:54 22.4°C / 54%
h1-hermonville 27-07-2026 - 12:54 22.2°C / 50%
h3-hermonville 27-07-2026 - 12:50 22.2°C / 51%
h4-hermonville 27-07-2026 - 12:48 23.9°C / 46%
h2-hermonville 27-07-2026 - 12:44 22.6°C / 52%
h1-hermonville 27-07-2026 - 12:44 22.4°C / 51.5%
h3-hermonville 27-07-2026 - 12:40 22.3°C / 51.5%
h4-hermonville 27-07-2026 - 12:38 24.3°C / 46%
h2-hermonville 27-07-2026 - 12:34 22.2°C / 53%
h1-hermonville 27-07-2026 - 12:34 21.7°C / 54%
h3-hermonville 27-07-2026 - 12:30 21.4°C / 55%
h4-hermonville 27-07-2026 - 12:28 23.8°C / 48%
h2-hermonville 27-07-2026 - 12:24 21.6°C / 57%
h1-hermonville 27-07-2026 - 12:24 21.3°C / 56%
h3-hermonville 27-07-2026 - 12:20 21.5°C / 55.5%
h4-hermonville 27-07-2026 - 12:18 24.4°C / 47%
h2-hermonville 27-07-2026 - 12:14 21.7°C / 55.5%
h1-hermonville 27-07-2026 - 12:14 21.7°C / 54.5%
h3-hermonville 27-07-2026 - 12:10 21.5°C / 54%
h4-hermonville 27-07-2026 - 12:08 25.4°C / 43.5%
h2-hermonville 27-07-2026 - 12:04 21.8°C / 57%
h1-hermonville 27-07-2026 - 12:04 21.7°C / 54%
h3-hermonville 27-07-2026 - 12:00 21.6°C / 54.5%
h4-hermonville 27-07-2026 - 11:58 26.9°C / 41.5%
h2-hermonville 27-07-2026 - 11:54 21.6°C / 58.5%
h1-hermonville 27-07-2026 - 11:54 21.3°C / 56.5%
h4-hermonville 27-07-2026 - 11:48 26°C / 43.5%
h2-hermonville 27-07-2026 - 11:44 21.4°C / 59.5%
h1-hermonville 27-07-2026 - 11:44 21.5°C / 56.5%
h3-hermonville 27-07-2026 - 11:40 21.3°C / 57%
h4-hermonville 27-07-2026 - 11:38 27°C / 41.5%
h2-hermonville 27-07-2026 - 11:34 21.5°C / 60%
h1-hermonville 27-07-2026 - 11:34 21.6°C / 55.5%
h3-hermonville 27-07-2026 - 11:30 21.6°C / 57.5%
h4-hermonville 27-07-2026 - 11:28 29.5°C / 38.5%
h2-hermonville 27-07-2026 - 11:24 21.1°C / 58.5%
h1-hermonville 27-07-2026 - 11:24 21.5°C / 57.5%
h3-hermonville 27-07-2026 - 11:20 21.1°C / 57%
h4-hermonville 27-07-2026 - 11:18 27.4°C / 42%
h2-hermonville 27-07-2026 - 11:14 20.7°C / 62%
h1-hermonville 27-07-2026 - 11:14 21°C / 59%
h3-hermonville 27-07-2026 - 11:10 20.9°C / 60%
h4-hermonville 27-07-2026 - 11:08 27.1°C / 43%
h2-hermonville 27-07-2026 - 11:04 20.8°C / 62.5%
h1-hermonville 27-07-2026 - 11:04 20.8°C / 60.5%
h3-hermonville 27-07-2026 - 11:00 21°C / 60.5%
h4-hermonville 27-07-2026 - 10:58 30.9°C / 36.5%
h2-hermonville 27-07-2026 - 10:54 20.5°C / 64%
h1-hermonville 27-07-2026 - 10:54 21°C / 60.5%
h3-hermonville 27-07-2026 - 10:50 20.7°C / 62.5%
h4-hermonville 27-07-2026 - 10:48 29.9°C / 38.5%
h2-hermonville 27-07-2026 - 10:44 20.3°C / 64.5%
h1-hermonville 27-07-2026 - 10:44 20.6°C / 61.5%
h3-hermonville 27-07-2026 - 10:40 20.3°C / 62%
h4-hermonville 27-07-2026 - 10:38 29.5°C / 39%
h2-hermonville 27-07-2026 - 10:34 20.3°C / 66.5%
h1-hermonville 27-07-2026 - 10:34 20.8°C / 62.5%
h3-hermonville 27-07-2026 - 10:30 20.3°C / 65.5%
h4-hermonville 27-07-2026 - 10:28 29.4°C / 40.5%
h2-hermonville 27-07-2026 - 10:24 20°C / 67%
h1-hermonville 27-07-2026 - 10:24 20.3°C / 65.5%
h3-hermonville 27-07-2026 - 10:20 19.7°C / 66%
h4-hermonville 27-07-2026 - 10:18 27.9°C / 44%
h2-hermonville 27-07-2026 - 10:14 19.7°C / 69%
h1-hermonville 27-07-2026 - 10:14 20°C / 66.5%
h3-hermonville 27-07-2026 - 10:10 19.7°C / 67.5%
h4-hermonville 27-07-2026 - 10:08 27.5°C / 45.5%
h2-hermonville 27-07-2026 - 10:04 19.5°C / 69%
h1-hermonville 27-07-2026 - 10:04 19.6°C / 68%
h3-hermonville 27-07-2026 - 10:00 19.4°C / 68.5%
h4-hermonville 27-07-2026 - 09:58 25.3°C / 51%
h2-hermonville 27-07-2026 - 09:54 19.5°C / 69.5%
h1-hermonville 27-07-2026 - 09:54 19.2°C / 68.5%
h3-hermonville 27-07-2026 - 09:50 19.2°C / 69.5%
h4-hermonville 27-07-2026 - 09:48 24.4°C / 52%
h2-hermonville 27-07-2026 - 09:44 19°C / 71.5%
h1-hermonville 27-07-2026 - 09:44 19.3°C / 69.5%
h3-hermonville 27-07-2026 - 09:40 19.1°C / 70.5%
h4-hermonville 27-07-2026 - 09:38 25.7°C / 50%
h1-hermonville 27-07-2026 - 09:34 19°C / 71%
h3-hermonville 27-07-2026 - 09:30 18.6°C / 72%
h4-hermonville 27-07-2026 - 09:28 23.6°C / 55%
h2-hermonville 27-07-2026 - 09:24 18.3°C / 73.5%
h1-hermonville 27-07-2026 - 09:24 18.8°C / 71.5%
h3-hermonville 27-07-2026 - 09:20 18.6°C / 72.5%
h4-hermonville 27-07-2026 - 09:18 23.3°C / 56.5%
h2-hermonville 27-07-2026 - 09:14 18.2°C / 74%
h1-hermonville 27-07-2026 - 09:14 18.7°C / 72%
h3-hermonville 27-07-2026 - 09:10 18.4°C / 73%
h4-hermonville 27-07-2026 - 09:08 22.9°C / 57%
h2-hermonville 27-07-2026 - 09:04 18.3°C / 74.5%
h1-hermonville 27-07-2026 - 09:04 18.7°C / 72%
h3-hermonville 27-07-2026 - 09:00 18.1°C / 74%
h4-hermonville 27-07-2026 - 08:58 21.9°C / 61%
h2-hermonville 27-07-2026 - 08:54 18°C / 75%
h1-hermonville 27-07-2026 - 08:54 18.4°C / 72.5%
h3-hermonville 27-07-2026 - 08:50 18°C / 74.5%
h4-hermonville 27-07-2026 - 08:48 21.5°C / 62%
h2-hermonville 27-07-2026 - 08:44 17.7°C / 76%
h1-hermonville 27-07-2026 - 08:44 18.3°C / 73.5%
h3-hermonville 27-07-2026 - 08:40 17.7°C / 75%
h4-hermonville 27-07-2026 - 08:38 20.3°C / 65.5%
h2-hermonville 27-07-2026 - 08:34 17.4°C / 77.5%
h1-hermonville 27-07-2026 - 08:34 18.3°C / 73%
h3-hermonville 27-07-2026 - 08:30 17.6°C / 76%
h4-hermonville 27-07-2026 - 08:28 20.1°C / 66%
h2-hermonville 27-07-2026 - 08:24 17.2°C / 78.5%
h1-hermonville 27-07-2026 - 08:24 18.1°C / 74%
h3-hermonville 27-07-2026 - 08:20 17.3°C / 76.5%
h4-hermonville 27-07-2026 - 08:18 19.4°C / 68%
h2-hermonville 27-07-2026 - 08:14 16.9°C / 79%
h1-hermonville 27-07-2026 - 08:14 17.8°C / 74.5%
h3-hermonville 27-07-2026 - 08:10 17.1°C / 77%
h4-hermonville 27-07-2026 - 08:08 18.8°C / 69.5%
h2-hermonville 27-07-2026 - 08:04 16.8°C / 79.5%
h1-hermonville 27-07-2026 - 08:04 17.5°C / 75.5%
h3-hermonville 27-07-2026 - 08:00 16.9°C / 78%
h4-hermonville 27-07-2026 - 07:58 18.5°C / 70.5%
h2-hermonville 27-07-2026 - 07:54 16.6°C / 79.5%
h1-hermonville 27-07-2026 - 07:54 17.5°C / 75%
h3-hermonville 27-07-2026 - 07:50 16.7°C / 78%
h4-hermonville 27-07-2026 - 07:48 18.3°C / 70.5%
h2-hermonville 27-07-2026 - 07:44 16.2°C / 81%
h1-hermonville 27-07-2026 - 07:44 17.5°C / 75%
h3-hermonville 27-07-2026 - 07:40 16.5°C / 78.5%
h4-hermonville 27-07-2026 - 07:38 17.9°C / 71.5%
h2-hermonville 27-07-2026 - 07:34 16.1°C / 81%
h1-hermonville 27-07-2026 - 07:34 17.4°C / 75%
h3-hermonville 27-07-2026 - 07:30 16.4°C / 78.5%
h4-hermonville 27-07-2026 - 07:28 17.7°C / 72%
h2-hermonville 27-07-2026 - 07:24 15.9°C / 81%
h1-hermonville 27-07-2026 - 07:24 16.9°C / 76.5%
h3-hermonville 27-07-2026 - 07:20 16.4°C / 78%
h2-hermonville 27-07-2026 - 07:14 16°C / 81%
h1-hermonville 27-07-2026 - 07:14 16.9°C / 76.5%
h3-hermonville 27-07-2026 - 07:10 16.4°C / 78%
h4-hermonville 27-07-2026 - 07:08 17.5°C / 72.5%
h2-hermonville 27-07-2026 - 07:04 16°C / 80.5%
h1-hermonville 27-07-2026 - 07:04 16.9°C / 76%
h3-hermonville 27-07-2026 - 07:00 16.4°C / 77.5%
h4-hermonville 27-07-2026 - 06:58 17.4°C / 72.5%
h2-hermonville 27-07-2026 - 06:54 15.8°C / 81%
h1-hermonville 27-07-2026 - 06:54 16.8°C / 76%
h3-hermonville 27-07-2026 - 06:50 16.3°C / 78%
h4-hermonville 27-07-2026 - 06:48 17.3°C / 72.5%
h2-hermonville 27-07-2026 - 06:44 15.8°C / 80%
h1-hermonville 27-07-2026 - 06:44 16.8°C / 76%
h3-hermonville 27-07-2026 - 06:40 16.3°C / 77%
h4-hermonville 27-07-2026 - 06:38 17.2°C / 72.5%
h2-hermonville 27-07-2026 - 06:34 15.8°C / 80.5%
h1-hermonville 27-07-2026 - 06:34 16.8°C / 75.5%
h3-hermonville 27-07-2026 - 06:30 16.3°C / 77.5%
h4-hermonville 27-07-2026 - 06:28 17.1°C / 72.5%
h2-hermonville 27-07-2026 - 06:24 15.9°C / 80%
h1-hermonville 27-07-2026 - 06:24 16.8°C / 75%
h3-hermonville 27-07-2026 - 06:20 16.5°C / 76.5%
h4-hermonville 27-07-2026 - 06:18 17.1°C / 72.5%
h2-hermonville 27-07-2026 - 06:14 15.8°C / 79.5%
h1-hermonville 27-07-2026 - 06:14 17°C / 75%
h3-hermonville 27-07-2026 - 06:10 16.4°C / 76.5%
h4-hermonville 27-07-2026 - 06:08 17.2°C / 72%
h2-hermonville 27-07-2026 - 06:04 16°C / 79%
h1-hermonville 27-07-2026 - 06:04 16.9°C / 74.5%
h3-hermonville 27-07-2026 - 06:00 16.5°C / 76%
h4-hermonville 27-07-2026 - 05:58 17.3°C / 72%
h2-hermonville 27-07-2026 - 05:54 16°C / 78.5%
h1-hermonville 27-07-2026 - 05:54 17.1°C / 74.5%
h3-hermonville 27-07-2026 - 05:50 16.6°C / 76%
h4-hermonville 27-07-2026 - 05:48 17.3°C / 71.5%
h2-hermonville 27-07-2026 - 05:44 16.2°C / 78.5%
h1-hermonville 27-07-2026 - 05:44 17°C / 74.5%
h3-hermonville 27-07-2026 - 05:40 16.6°C / 76%
h4-hermonville 27-07-2026 - 05:38 17.3°C / 72%
h2-hermonville 27-07-2026 - 05:34 16.1°C / 78.5%
h1-hermonville 27-07-2026 - 05:34 17°C / 74.5%
h3-hermonville 27-07-2026 - 05:30 16.6°C / 76%
h4-hermonville 27-07-2026 - 05:28 17.4°C / 71.5%
h2-hermonville 27-07-2026 - 05:24 16.2°C / 78%
h1-hermonville 27-07-2026 - 05:24 17°C / 74.5%
h3-hermonville 27-07-2026 - 05:20 16.7°C / 75%
h4-hermonville 27-07-2026 - 05:18 17.4°C / 71.5%
h2-hermonville 27-07-2026 - 05:14 16.1°C / 78%
h1-hermonville 27-07-2026 - 05:14 17°C / 74%
h3-hermonville 27-07-2026 - 05:10 16.6°C / 75.5%
h4-hermonville 27-07-2026 - 05:08 17.5°C / 70.5%
h2-hermonville 27-07-2026 - 05:04 16.1°C / 78%
h1-hermonville 27-07-2026 - 05:04 17.1°C / 73.5%
h3-hermonville 27-07-2026 - 05:00 16.8°C / 75%
h2-hermonville 27-07-2026 - 04:54 16.2°C / 77.5%
h1-hermonville 27-07-2026 - 04:54 17.1°C / 73%
h3-hermonville 27-07-2026 - 04:50 16.6°C / 75%
h4-hermonville 27-07-2026 - 04:48 17.6°C / 69.5%
h2-hermonville 27-07-2026 - 04:44 16.2°C / 77%
h1-hermonville 27-07-2026 - 04:44 17.3°C / 73%
h3-hermonville 27-07-2026 - 04:40 16.5°C / 75.5%
h2-hermonville 27-07-2026 - 04:34 16.2°C / 77%
h1-hermonville 27-07-2026 - 04:34 17.3°C / 72.5%
h3-hermonville 27-07-2026 - 04:30 16.7°C / 75%
h4-hermonville 27-07-2026 - 04:28 17.9°C / 69%
h2-hermonville 27-07-2026 - 04:24 16.2°C / 76.5%
h1-hermonville 27-07-2026 - 04:24 17.4°C / 72%
h3-hermonville 27-07-2026 - 04:20 16.5°C / 75.5%
h4-hermonville 27-07-2026 - 04:18 17.9°C / 68.5%
h2-hermonville 27-07-2026 - 04:14 16.4°C / 76%
h1-hermonville 27-07-2026 - 04:14 17.4°C / 72%
h3-hermonville 27-07-2026 - 04:10 16.5°C / 75%
h4-hermonville 27-07-2026 - 04:08 18°C / 68.5%
h2-hermonville 27-07-2026 - 04:04 16.5°C / 76%
h1-hermonville 27-07-2026 - 04:04 17.4°C / 72%
h3-hermonville 27-07-2026 - 04:00 16.6°C / 74.5%
h4-hermonville 27-07-2026 - 03:58 18.1°C / 68%
h2-hermonville 27-07-2026 - 03:54 16.5°C / 75.5%
h1-hermonville 27-07-2026 - 03:54 17.6°C / 71.5%
h3-hermonville 27-07-2026 - 03:50 16.8°C / 74%
h4-hermonville 27-07-2026 - 03:48 18.2°C / 67.5%
h2-hermonville 27-07-2026 - 03:44 16.6°C / 75%
h1-hermonville 27-07-2026 - 03:44 17.6°C / 71.5%
h3-hermonville 27-07-2026 - 03:40 16.8°C / 74%
h4-hermonville 27-07-2026 - 03:38 18.2°C / 67.5%
h2-hermonville 27-07-2026 - 03:34 16.7°C / 74.5%
h1-hermonville 27-07-2026 - 03:34 17.6°C / 71%
h3-hermonville 27-07-2026 - 03:30 16.9°C / 73.5%
h4-hermonville 27-07-2026 - 03:28 18.3°C / 67%
h2-hermonville 27-07-2026 - 03:24 16.9°C / 74.5%
h1-hermonville 27-07-2026 - 03:24 17.8°C / 70.5%
h3-hermonville 27-07-2026 - 03:20 17°C / 73%
h4-hermonville 27-07-2026 - 03:18 18.4°C / 66.5%
h2-hermonville 27-07-2026 - 03:14 17°C / 74%
h1-hermonville 27-07-2026 - 03:14 17.8°C / 70%
h3-hermonville 27-07-2026 - 03:10 17°C / 72.5%
h4-hermonville 27-07-2026 - 03:08 18.5°C / 66%
h2-hermonville 27-07-2026 - 03:04 17.1°C / 73%
h1-hermonville 27-07-2026 - 03:04 17.9°C / 70%
h3-hermonville 27-07-2026 - 03:00 17.2°C / 72.5%
h4-hermonville 27-07-2026 - 02:58 18.6°C / 66%
h2-hermonville 27-07-2026 - 02:54 17.1°C / 73%
h1-hermonville 27-07-2026 - 02:54 17.9°C / 69.5%
h3-hermonville 27-07-2026 - 02:50 17.2°C / 72%
h4-hermonville 27-07-2026 - 02:48 18.7°C / 65.5%
h2-hermonville 27-07-2026 - 02:44 17.3°C / 72%
h1-hermonville 27-07-2026 - 02:44 18.1°C / 69%
h3-hermonville 27-07-2026 - 02:40 17.4°C / 71%
h4-hermonville 27-07-2026 - 02:38 18.8°C / 65%
h2-hermonville 27-07-2026 - 02:34 17.5°C / 72%
h1-hermonville 27-07-2026 - 02:34 18.1°C / 69%
h3-hermonville 27-07-2026 - 02:30 17.5°C / 71%
h4-hermonville 27-07-2026 - 02:28 18.9°C / 65%
h2-hermonville 27-07-2026 - 02:24 17.6°C / 71%
h1-hermonville 27-07-2026 - 02:24 18.3°C / 68.5%
h3-hermonville 27-07-2026 - 02:20 17.6°C / 70.5%
h4-hermonville 27-07-2026 - 02:18 19.1°C / 64.5%
h2-hermonville 27-07-2026 - 02:14 17.7°C / 70.5%
h1-hermonville 27-07-2026 - 02:14 18.3°C / 68.5%
h3-hermonville 27-07-2026 - 02:10 17.8°C / 70%
h4-hermonville 27-07-2026 - 02:08 19.1°C / 64.5%
h2-hermonville 27-07-2026 - 02:04 18°C / 70%
h1-hermonville 27-07-2026 - 02:04 18.4°C / 68%
h3-hermonville 27-07-2026 - 02:00 17.8°C / 69.5%
h4-hermonville 27-07-2026 - 01:58 19.2°C / 64%
h2-hermonville 27-07-2026 - 01:54 18°C / 69.5%
h1-hermonville 27-07-2026 - 01:54 18.6°C / 67.5%
h3-hermonville 27-07-2026 - 01:50 18°C / 69%
h4-hermonville 27-07-2026 - 01:48 19.2°C / 63.5%
h2-hermonville 27-07-2026 - 01:44 18°C / 69.5%
h1-hermonville 27-07-2026 - 01:44 18.6°C / 67.5%
h3-hermonville 27-07-2026 - 01:40 18°C / 69%
h4-hermonville 27-07-2026 - 01:38 19.5°C / 63%
h2-hermonville 27-07-2026 - 01:34 18.1°C / 69%
h1-hermonville 27-07-2026 - 01:34 18.6°C / 67%
h3-hermonville 27-07-2026 - 01:30 18.1°C / 68.5%
h4-hermonville 27-07-2026 - 01:28 19.5°C / 62.5%
h2-hermonville 27-07-2026 - 01:24 18°C / 69%
h1-hermonville 27-07-2026 - 01:24 18.9°C / 66%
h3-hermonville 27-07-2026 - 01:20 18.4°C / 67.5%
h4-hermonville 27-07-2026 - 01:18 19.7°C / 62.5%
h2-hermonville 27-07-2026 - 01:14 18.2°C / 68.5%
h1-hermonville 27-07-2026 - 01:14 19°C / 66%
h3-hermonville 27-07-2026 - 01:10 18.4°C / 67.5%
h4-hermonville 27-07-2026 - 01:08 19.7°C / 62.5%
h2-hermonville 27-07-2026 - 01:04 18.4°C / 68%
h1-hermonville 27-07-2026 - 01:04 19.1°C / 65.5%
h3-hermonville 27-07-2026 - 01:00 18.7°C / 66.5%
h4-hermonville 27-07-2026 - 00:58 19.8°C / 61.5%
h2-hermonville 27-07-2026 - 00:54 18.5°C / 67%
h1-hermonville 27-07-2026 - 00:54 19.2°C / 64.5%
h3-hermonville 27-07-2026 - 00:50 18.9°C / 65.5%
h4-hermonville 27-07-2026 - 00:48 19.9°C / 61.5%
h2-hermonville 27-07-2026 - 00:44 18.8°C / 67%
h1-hermonville 27-07-2026 - 00:44 19.3°C / 65.5%
h3-hermonville 27-07-2026 - 00:40 19.2°C / 65.5%
h4-hermonville 27-07-2026 - 00:38 20.1°C / 62.5%
h2-hermonville 27-07-2026 - 00:34 19°C / 67%
h1-hermonville 27-07-2026 - 00:34 19.4°C / 66%
h3-hermonville 27-07-2026 - 00:30 19.7°C / 65.5%
h4-hermonville 27-07-2026 - 00:28 20.2°C / 63%
h2-hermonville 27-07-2026 - 00:24 19.4°C / 67%
h1-hermonville 27-07-2026 - 00:24 19.3°C / 67.5%
h3-hermonville 27-07-2026 - 00:20 20°C / 65%
h4-hermonville 27-07-2026 - 00:18 20.3°C / 63%
h2-hermonville 27-07-2026 - 00:14 19.8°C / 66%
h1-hermonville 27-07-2026 - 00:14 19.4°C / 67.5%
h3-hermonville 27-07-2026 - 00:10 20.1°C / 64.5%
h4-hermonville 27-07-2026 - 00:08 20.4°C / 62.5%
h1-hermonville 27-07-2026 - 00:04 19.4°C / 67%
h3-hermonville 27-07-2026 - 00:00 20.2°C / 64.5%